Time;durP1;ratioP1;P1;durP2;ratioP2;P2;SDS_P1;SDS_P2;PMS_P1;PMS_P2;Temp;Humidity;BMP_temperature;BMP_pressure;BME280_temperature;BME280_humidity;BME280_pressure;Samples;Min_cycle;Max_cycle;Signal;HPM_P1;HPM_P2
2023/07/17 00:00:13;;;;;;;35.13;32.65;;;;;;;25.23;100.00;101080.53;5043797;28;20041;-82
2023/07/17 00:02:40;;;;;;;30.30;28.33;;;;;;;25.31;100.00;101085.31;5043553;28;20045;-82
2023/07/17 00:05:08;;;;;;;34.17;31.77;;;;;;;25.24;100.00;101096.56;5041429;28;20571;-83
2023/07/17 00:07:35;;;;;;;30.95;28.95;;;;;;;25.17;100.00;101081.72;5045978;28;20052;-82
2023/07/17 00:10:03;;;;;;;30.30;28.13;;;;;;;25.19;100.00;101083.03;5045055;28;20045;-82
2023/07/17 00:12:30;;;;;;;30.20;28.10;;;;;;;25.25;100.00;101086.50;5046299;28;20079;-82
2023/07/17 00:14:57;;;;;;;29.08;27.17;;;;;;;25.23;100.00;101092.22;5040336;28;20045;-82
2023/07/17 00:17:28;;;;;;;31.58;29.40;;;;;;;25.22;100.00;101085.16;5038484;28;20045;-82
2023/07/17 00:19:56;;;;;;;40.80;38.15;;;;;;;25.19;100.00;101088.47;5046165;28;20107;-82
2023/07/17 00:22:23;;;;;;;33.20;30.75;;;;;;;25.13;100.00;101081.50;5040915;28;20042;-82
2023/07/17 00:24:50;;;;;;;31.23;29.15;;;;;;;25.14;100.00;101080.41;5041938;28;20052;-82
2023/07/17 00:27:17;;;;;;;32.55;30.45;;;;;;;25.15;100.00;101073.88;5044527;28;20099;-82
2023/07/17 00:29:44;;;;;;;32.60;30.48;;;;;;;25.16;100.00;101070.03;5040209;28;20045;-82
2023/07/17 00:32:12;;;;;;;33.65;31.08;;;;;;;25.12;100.00;101072.53;5042362;28;20056;-82
2023/07/17 00:34:41;;;;;;;29.58;27.45;;;;;;;25.07;100.00;101075.31;5042266;28;20080;-82
2023/07/17 00:37:08;;;;;;;29.23;27.13;;;;;;;25.07;100.00;101074.50;5038374;28;20045;-82
2023/07/17 00:39:35;;;;;;;33.03;30.88;;;;;;;25.08;100.00;101079.66;5049139;28;20049;-82
2023/07/17 00:42:03;;;;;;;27.33;25.40;;;;;;;25.12;100.00;101071.72;5039248;28;20045;-82
2023/07/17 00:44:29;;;;;;;28.67;26.88;;;;;;;25.04;100.00;101081.31;5044665;28;20049;-82
2023/07/17 00:46:57;;;;;;;33.38;31.30;;;;;;;25.04;100.00;101077.81;5045718;28;20049;-82
2023/07/17 00:49:27;;;;;;;31.52;29.50;;;;;;;25.04;100.00;101069.66;5038638;28;20068;-82
2023/07/17 00:51:57;;;;;;;28.52;26.30;;;;;;;24.91;100.00;101074.72;5039286;28;20044;-82
2023/07/17 00:54:24;;;;;;;27.90;25.70;;;;;;;24.81;100.00;101074.06;5041967;28;20044;-82
2023/07/17 00:56:53;;;;;;;27.88;25.92;;;;;;;24.90;100.00;101075.84;5039298;28;20045;-82
2023/07/17 00:59:20;;;;;;;31.13;29.02;;;;;;;24.85;100.00;101070.47;5038627;28;20049;-82
2023/07/17 01:01:48;;;;;;;31.52;29.50;;;;;;;24.73;100.00;101063.88;5038408;28;20509;-83
2023/07/17 01:04:15;;;;;;;30.35;28.15;;;;;;;24.75;100.00;101064.34;5041587;28;20056;-83
2023/07/17 01:06:42;;;;;;;34.75;32.58;;;;;;;24.73;100.00;101064.66;5041145;28;20524;-82
2023/07/17 01:09:12;;;;;;;32.13;29.85;;;;;;;24.59;100.00;101056.41;5042340;28;20053;-82
2023/07/17 01:11:40;;;;;;;31.73;29.65;;;;;;;24.57;100.00;101063.22;5041308;28;20052;-83
2023/07/17 01:14:15;;;;;;;35.50;33.25;;;;;;;24.27;100.00;101073.34;5046071;28;20519;-82
2023/07/17 01:16:41;;;;;;;35.55;33.45;;;;;;;23.84;100.00;101069.72;5037155;28;20052;-82
2023/07/17 01:19:08;;;;;;;35.60;33.30;;;;;;;24.17;100.00;101062.59;5035723;28;20155;-82
2023/07/17 01:21:39;;;;;;;34.67;32.58;;;;;;;23.60;100.00;101072.38;5039917;28;20052;-81
2023/07/17 01:24:08;;;;;;;28.50;26.40;;;;;;;23.81;100.00;101068.41;5042210;28;20056;-82
2023/07/17 01:26:35;;;;;;;33.13;30.92;;;;;;;23.82;100.00;101066.53;5043966;28;20053;-82
2023/07/17 01:29:02;;;;;;;34.85;32.63;;;;;;;23.59;100.00;101068.84;5046660;28;20056;-82
2023/07/17 01:31:28;;;;;;;29.90;27.92;;;;;;;23.27;100.00;101067.50;5041634;28;20056;-82
2023/07/17 01:33:55;;;;;;;31.60;29.38;;;;;;;23.05;100.00;101077.91;5043221;28;20511;-82
2023/07/17 01:36:22;;;;;;;31.73;29.83;;;;;;;22.64;100.00;101078.94;5044788;28;20049;-82
2023/07/17 01:38:49;;;;;;;31.73;29.35;;;;;;;23.05;100.00;101064.38;5042287;28;20047;-82
2023/07/17 01:41:17;;;;;;;31.98;29.58;;;;;;;23.57;100.00;101060.22;5042043;28;20045;-82
2023/07/17 01:43:44;;;;;;;30.05;27.70;;;;;;;23.68;100.00;101072.56;5040463;28;20045;-82
2023/07/17 01:46:11;;;;;;;34.40;32.10;;;;;;;23.67;100.00;101076.38;5043188;28;20498;-83
2023/07/17 01:48:38;;;;;;;32.15;29.85;;;;;;;23.57;100.00;101071.06;5047441;28;20044;-82
2023/07/17 01:51:05;;;;;;;36.00;33.28;;;;;;;23.62;100.00;101076.41;5042954;28;20046;-82
2023/07/17 01:53:32;;;;;;;34.92;32.50;;;;;;;23.67;100.00;101072.84;5040123;28;20493;-82
2023/07/17 01:55:59;;;;;;;36.00;33.75;;;;;;;23.88;100.00;101081.66;5039477;28;20425;-83
2023/07/17 01:58:28;;;;;;;33.35;31.08;;;;;;;23.52;100.00;101084.66;5042184;28;20088;-82
2023/07/17 02:00:55;;;;;;;32.33;30.08;;;;;;;23.43;100.00;101087.16;5037171;28;20045;-82
2023/07/17 02:03:22;;;;;;;39.13;36.80;;;;;;;23.47;100.00;101085.47;5041058;28;20057;-82
2023/07/17 02:05:50;;;;;;;42.65;40.03;;;;;;;23.59;100.00;101076.19;5040191;28;20433;-82
2023/07/17 02:08:17;;;;;;;34.58;32.47;;;;;;;23.60;100.00;101084.03;5035500;28;20041;-82
2023/07/17 02:10:45;;;;;;;35.67;33.58;;;;;;;23.54;100.00;101080.56;5042308;28;20045;-82
2023/07/17 02:13:12;;;;;;;41.35;38.85;;;;;;;23.20;100.00;101080.53;5041221;28;20048;-82
2023/07/17 02:15:40;;;;;;;32.95;30.65;;;;;;;22.31;100.00;101088.53;5036266;28;20485;-82
2023/07/17 02:18:08;;;;;;;48.17;45.42;;;;;;;22.27;100.00;101086.63;5038452;28;20064;-82
2023/07/17 02:20:35;;;;;;;46.80;44.10;;;;;;;22.13;100.00;101095.31;5036533;28;20494;-82
2023/07/17 02:23:02;;;;;;;44.20;41.70;;;;;;;22.24;100.00;101089.91;5036968;28;20055;-81
2023/07/17 02:25:29;;;;;;;44.10;41.35;;;;;;;22.60;100.00;101093.28;5038629;28;20052;-82
2023/07/17 02:27:56;;;;;;;34.13;32.03;;;;;;;22.75;100.00;101087.00;5047616;28;20040;-82
2023/07/17 02:30:23;;;;;;;48.28;45.70;;;;;;;22.78;100.00;101087.25;5041345;28;20060;-82
2023/07/17 02:32:51;;;;;;;57.97;55.17;;;;;;;22.25;100.00;101088.81;5043166;28;20057;-82
2023/07/17 02:35:18;;;;;;;68.38;64.80;;;;;;;22.37;100.00;101086.63;5045211;28;20051;-82
2023/07/17 02:37:45;;;;;;;54.58;51.85;;;;;;;22.62;100.00;101089.22;5040830;28;20045;-82
2023/07/17 02:40:13;;;;;;;47.13;44.80;;;;;;;22.74;100.00;101091.59;5044457;28;20052;-82
2023/07/17 02:42:40;;;;;;;34.38;32.28;;;;;;;21.98;100.00;101095.34;5049535;28;20079;-82
2023/07/17 02:45:08;;;;;;;43.83;41.53;;;;;;;22.08;100.00;101091.81;5047795;28;20063;-82
2023/07/17 02:47:35;;;;;;;31.83;29.92;;;;;;;22.22;100.00;101101.00;5044722;28;20066;-82
2023/07/17 02:50:04;;;;;;;32.03;30.02;;;;;;;22.30;100.00;101097.75;5041190;28;20124;-82
2023/07/17 02:52:34;;;;;;;30.50;28.60;;;;;;;22.49;100.00;101092.53;5038408;28;20432;-82
2023/07/17 02:55:01;;;;;;;33.58;31.27;;;;;;;22.42;100.00;101094.72;5049641;28;20077;-82
2023/07/17 02:57:28;;;;;;;31.42;29.23;;;;;;;22.26;100.00;101095.84;5045925;28;20060;-82
2023/07/17 02:59:56;;;;;;;26.33;24.42;;;;;;;22.25;100.00;101100.47;5041752;28;20073;-82
2023/07/17 03:02:23;;;;;;;30.85;28.58;;;;;;;21.94;100.00;101103.19;5043561;28;20103;-82
2023/07/17 03:04:50;;;;;;;28.33;26.05;;;;;;;21.68;100.00;101099.69;5048058;28;20044;-82
2023/07/17 03:07:18;;;;;;;23.70;21.45;;;;;;;22.01;100.00;101105.63;5047136;28;20132;-82
2023/07/17 03:09:45;;;;;;;24.45;22.25;;;;;;;22.05;100.00;101106.69;5043192;28;20458;-82
2023/07/17 03:12:12;;;;;;;23.90;22.00;;;;;;;22.22;100.00;101111.81;5041498;28;20045;-82
2023/07/17 03:14:39;;;;;;;24.77;22.63;;;;;;;22.37;100.00;101110.97;5047280;28;20052;-82
2023/07/17 03:17:06;;;;;;;28.92;26.58;;;;;;;22.00;100.00;101114.81;5046040;28;20497;-82
2023/07/17 03:19:33;;;;;;;26.65;24.42;;;;;;;22.26;100.00;101112.88;5043715;28;20060;-82
2023/07/17 03:21:59;;;;;;;26.23;24.00;;;;;;;22.12;100.00;101117.25;5039557;28;20045;-81
2023/07/17 03:24:28;;;;;;;25.30;23.13;;;;;;;22.36;100.00;101120.16;5049706;28;20057;-82
2023/07/17 03:26:55;;;;;;;27.10;24.38;;;;;;;22.40;100.00;101121.25;5045027;28;20064;-82
2023/07/17 03:29:21;;;;;;;25.65;23.55;;;;;;;22.46;100.00;101122.84;5039644;28;20045;-82
2023/07/17 03:31:48;;;;;;;29.95;27.73;;;;;;;22.43;100.00;101122.59;5046319;28;20052;-82
2023/07/17 03:34:18;;;;;;;25.88;23.67;;;;;;;21.84;100.00;101121.31;5038449;28;20042;-82
2023/07/17 03:36:47;;;;;;;27.80;25.50;;;;;;;22.39;100.00;101135.84;5042565;28;20056;-82
2023/07/17 03:39:14;;;;;;;26.30;24.20;;;;;;;22.36;100.00;101131.81;5042684;28;20512;-82
2023/07/17 03:41:42;;;;;;;27.25;24.73;;;;;;;22.66;100.00;101121.16;5044564;28;20055;-82
2023/07/17 03:44:09;;;;;;;28.92;26.77;;;;;;;22.79;100.00;101134.91;5045396;28;20440;-82
2023/07/17 03:46:36;;;;;;;25.77;23.42;;;;;;;22.68;100.00;101137.94;5041710;28;20057;-82
2023/07/17 03:49:03;;;;;;;28.55;26.05;;;;;;;22.73;100.00;101121.69;5036930;28;20045;-82
2023/07/17 03:51:30;;;;;;;28.55;26.15;;;;;;;22.88;100.00;101128.94;5042763;28;20045;-82
2023/07/17 03:53:57;;;;;;;28.95;26.60;;;;;;;22.65;100.00;101131.19;5047058;28;20047;-82
2023/07/17 03:56:24;;;;;;;28.13;25.52;;;;;;;22.86;100.00;101131.91;5041366;28;20052;-82
2023/07/17 03:58:52;;;;;;;26.42;24.27;;;;;;;22.88;100.00;101131.63;5039204;28;20065;-82
2023/07/17 04:01:19;;;;;;;25.52;23.33;;;;;;;23.06;100.00;101125.63;5043815;28;20052;-82
2023/07/17 04:03:46;;;;;;;26.67;24.58;;;;;;;23.22;100.00;101118.19;5045977;28;20041;-82
2023/07/17 04:06:13;;;;;;;26.52;23.90;;;;;;;23.22;100.00;101134.44;5040461;28;20053;-82
2023/07/17 04:08:40;;;;;;;27.02;24.88;;;;;;;23.40;100.00;101125.66;5038464;28;20053;-82
2023/07/17 04:11:07;;;;;;;26.75;24.40;;;;;;;23.30;100.00;101126.53;5037814;28;20488;-82
2023/07/17 04:13:34;;;;;;;25.95;23.67;;;;;;;23.60;100.00;101129.28;5043306;28;20057;-82
2023/07/17 04:16:04;;;;;;;24.23;22.33;;;;;;;23.68;100.00;101128.69;5044101;28;20041;-82
2023/07/17 04:18:31;;;;;;;25.08;22.77;;;;;;;23.70;100.00;101137.41;5044652;28;20055;-82
2023/07/17 04:20:57;;;;;;;23.25;21.17;;;;;;;23.92;100.00;101136.94;5040387;28;20044;-82
2023/07/17 04:23:24;;;;;;;24.23;22.23;;;;;;;23.81;100.00;101149.75;5039750;28;20492;-82
2023/07/17 04:25:51;;;;;;;23.92;21.83;;;;;;;24.03;100.00;101152.03;5045567;28;20052;-82
2023/07/17 04:28:19;;;;;;;23.70;21.48;;;;;;;24.21;100.00;101142.34;5044090;28;20048;-82
2023/07/17 04:30:48;;;;;;;23.08;20.98;;;;;;;24.11;100.00;101147.88;5041343;28;20045;-82
2023/07/17 04:33:16;;;;;;;23.40;21.05;;;;;;;24.27;100.00;101141.22;5037805;28;20672;-82
2023/07/17 04:35:43;;;;;;;23.52;21.33;;;;;;;24.46;100.00;101135.88;5039302;28;20508;-82
2023/07/17 04:38:10;;;;;;;22.98;20.85;;;;;;;24.59;100.00;101137.06;5047238;28;20124;-82
2023/07/17 04:40:37;;;;;;;24.38;22.38;;;;;;;24.55;100.00;101136.03;5044390;28;20049;-82
2023/07/17 04:43:04;;;;;;;24.70;22.50;;;;;;;24.62;100.00;101137.28;5038547;28;20053;-82
2023/07/17 04:45:31;;;;;;;24.38;22.13;;;;;;;24.71;100.00;101133.94;5046315;28;20049;-82
2023/07/17 04:47:58;;;;;;;25.10;23.00;;;;;;;24.84;100.00;101146.81;5043104;28;20045;-82
2023/07/17 04:50:27;;;;;;;25.92;23.55;;;;;;;25.07;100.00;101151.38;5041735;28;20508;-82
2023/07/17 04:52:54;;;;;;;26.15;24.05;;;;;;;25.12;100.00;101145.91;5043491;28;20090;-82
2023/07/17 04:55:22;;;;;;;26.15;23.77;;;;;;;25.28;100.00;101148.41;5040469;28;20068;-82
2023/07/17 04:57:49;;;;;;;24.48;22.10;;;;;;;25.33;100.00;101146.44;5045773;28;20037;-82
2023/07/17 05:00:17;;;;;;;24.48;22.67;;;;;;;25.39;100.00;101160.78;5043238;28;20162;-82
2023/07/17 05:02:44;;;;;;;24.77;22.98;;;;;;;25.47;100.00;101149.22;5040602;28;20097;-82
2023/07/17 05:05:11;;;;;;;23.15;21.13;;;;;;;25.68;100.00;101152.41;5040974;28;20052;-82
2023/07/17 05:07:41;;;;;;;23.60;21.70;;;;;;;25.53;100.00;101160.81;5043036;28;20053;-82
2023/07/17 05:10:10;;;;;;;24.50;22.10;;;;;;;25.53;100.00;101153.47;5051953;28;20049;-81
2023/07/17 05:12:37;;;;;;;23.95;21.95;;;;;;;25.70;100.00;101152.13;5050226;28;20493;-81
2023/07/17 05:15:05;;;;;;;24.30;22.30;;;;;;;25.86;100.00;101153.50;5040538;28;20491;-82
2023/07/17 05:17:31;;;;;;;23.52;21.58;;;;;;;26.00;100.00;101153.56;5043272;28;20045;-82
2023/07/17 05:19:58;;;;;;;24.75;22.17;;;;;;;26.15;100.00;101152.47;5043151;28;20044;-82
2023/07/17 05:22:34;;;;;;;24.90;22.80;;;;;;;26.56;100.00;101146.28;5051416;28;20056;-82
2023/07/17 05:25:03;;;;;;;26.58;24.38;;;;;;;26.52;100.00;101154.25;5051592;28;20053;-82
2023/07/17 05:27:29;;;;;;;28.00;26.02;;;;;;;26.50;100.00;101151.81;5039061;28;20075;-82
2023/07/17 05:29:56;;;;;;;26.73;24.73;;;;;;;26.33;100.00;101150.78;5041853;28;20041;-82
2023/07/17 05:32:23;;;;;;;28.83;26.73;;;;;;;26.60;100.00;101156.28;5049166;28;20064;-82
2023/07/17 05:34:58;;;;;;;29.75;27.33;;;;;;;26.53;100.00;101163.22;5051749;28;20056;-82
2023/07/17 05:37:25;;;;;;;30.08;27.88;;;;;;;27.03;100.00;101152.38;5035651;28;20048;-82
2023/07/17 05:39:56;;;;;;;29.35;27.15;;;;;;;26.91;100.00;101164.59;5038603;28;20042;-82
2023/07/17 05:42:24;;;;;;;28.23;25.83;;;;;;;27.29;100.00;101161.59;5042400;28;20049;-82
2023/07/17 05:44:51;;;;;;;26.73;24.52;;;;;;;27.21;100.00;101172.47;5047637;28;20049;-82
2023/07/17 05:47:38;;;;;;;29.33;27.10;;;;;;;27.44;100.00;101170.56;5051092;28;20045;-82
2023/07/17 05:50:07;;;;;;;30.65;28.45;;;;;;;27.71;100.00;101169.63;5039544;28;20045;-82
2023/07/17 05:52:34;;;;;;;31.02;28.85;;;;;;;27.74;100.00;101167.09;5045043;28;20045;-82
2023/07/17 05:55:07;;;;;;;32.42;30.23;;;;;;;28.06;100.00;101176.16;5040553;28;20045;-82
2023/07/17 05:57:54;;;;;;;29.70;27.67;;;;;;;28.06;100.00;101170.69;5050449;28;20049;-82
2023/07/17 06:00:21;;;;;;;29.45;27.25;;;;;;;28.39;100.00;101168.44;5050950;28;20071;-82
2023/07/17 06:02:49;;;;;;;27.90;25.70;;;;;;;28.56;100.00;101166.91;5045041;28;20049;-82
2023/07/17 06:05:16;;;;;;;31.77;28.92;;;;;;;28.82;100.00;101167.00;5038782;28;20046;-82
2023/07/17 06:07:50;;;;;;;31.88;29.50;;;;;;;28.82;100.00;101165.06;5046483;28;20135;-82
2023/07/17 06:10:17;;;;;;;34.75;32.25;;;;;;;28.95;100.00;101163.31;5050963;28;20056;-82
2023/07/17 06:12:45;;;;;;;32.58;30.35;;;;;;;29.20;100.00;101167.25;5051034;28;20076;-82
2023/07/17 06:15:16;;;;;;;33.88;31.42;;;;;;;29.34;100.00;101169.81;5041196;28;20046;-83
2023/07/17 06:17:43;;;;;;;29.83;27.27;;;;;;;29.72;100.00;101170.00;5040583;28;20056;-82
2023/07/17 06:20:26;;;;;;;29.77;27.58;;;;;;;29.94;100.00;101160.75;5049102;28;20053;-82
2023/07/17 06:23:00;;;;;;;31.02;28.63;;;;;;;30.28;100.00;101167.28;5050711;28;20428;-82
2023/07/17 06:25:27;;;;;;;33.63;31.40;;;;;;;30.51;100.00;101165.09;5050755;28;20500;-82
2023/07/17 06:27:56;;;;;;;34.65;32.35;;;;;;;30.58;100.00;101177.13;5040646;28;20125;-82
2023/07/17 06:30:25;;;;;;;32.58;29.98;;;;;;;30.43;100.00;101166.72;5040151;28;20061;-82
2023/07/17 06:32:58;;;;;;;30.40;27.88;;;;;;;30.46;100.00;101168.81;5045292;28;20063;-80
2023/07/17 06:35:25;;;;;;;30.98;28.77;;;;;;;30.45;100.00;101169.94;5050613;28;20053;-81
2023/07/17 06:37:52;;;;;;;30.25;27.50;;;;;;;30.32;100.00;101169.03;5046039;28;20069;-80
2023/07/17 06:40:19;;;;;;;31.15;28.73;;;;;;;30.38;100.00;101166.94;5044173;28;20057;-80
2023/07/17 06:42:46;;;;;;;30.73;27.58;;;;;;;30.09;100.00;101173.91;5040646;28;20048;-81
2023/07/17 06:45:13;;;;;;;38.42;35.53;;;;;;;30.30;100.00;101174.03;5031145;28;20557;-81
2023/07/17 06:47:41;;;;;;;34.13;31.17;;;;;;;30.67;100.00;101176.28;5031872;28;20046;-82
2023/07/17 06:50:17;;;;;;;33.88;30.77;;;;;;;30.40;100.00;101172.06;5047773;28;20046;-83
2023/07/17 06:52:43;;;;;;;35.42;32.53;;;;;;;29.92;100.00;101182.16;5043132;28;20053;-83
2023/07/17 06:55:11;;;;;;;31.52;28.40;;;;;;;29.24;100.00;101175.63;5040156;28;20069;-82
2023/07/17 06:57:38;;;;;;;31.13;28.10;;;;;;;29.27;100.00;101161.31;5039420;28;20053;-81
2023/07/17 07:00:06;;;;;;;35.88;32.80;;;;;;;29.26;100.00;101176.91;5038763;28;20049;-84
2023/07/17 07:02:42;;;;;;;30.02;27.40;;;;;;;29.36;100.00;101175.78;5035145;28;20050;-80
2023/07/17 07:05:16;;;;;;;31.63;29.33;;;;;;;29.59;100.00;101165.44;5039083;28;20047;-82
2023/07/17 07:07:43;;;;;;;33.38;30.63;;;;;;;29.59;100.00;101174.50;5042226;28;20045;-84
2023/07/17 07:10:10;;;;;;;34.80;32.13;;;;;;;29.71;100.00;101170.28;5042616;28;20504;-82
2023/07/17 07:12:38;;;;;;;33.83;31.02;;;;;;;29.60;100.00;101175.28;5040386;28;20124;-79
2023/07/17 07:15:27;;;;;;;33.03;30.23;;;;;;;29.69;100.00;101170.63;5043972;28;20048;-79
2023/07/17 07:17:56;;;;;;;31.27;28.75;;;;;;;29.60;100.00;101173.34;5041856;28;20045;-78
2023/07/17 07:20:22;;;;;;;30.27;27.80;;;;;;;29.65;100.00;101175.13;5043025;28;20053;-83
2023/07/17 07:22:49;;;;;;;28.60;26.20;;;;;;;29.60;100.00;101176.09;5044747;28;20452;-83
2023/07/17 07:25:16;;;;;;;36.05;33.30;;;;;;;29.55;100.00;101178.97;5043138;28;20041;-83
2023/07/17 07:27:43;;;;;;;35.22;32.63;;;;;;;29.62;100.00;101175.78;5040422;28;20048;-83
2023/07/17 07:30:10;;;;;;;31.70;29.30;;;;;;;29.76;100.00;101175.59;5044647;28;20049;-83
2023/07/17 07:32:40;;;;;;;31.48;28.77;;;;;;;29.56;100.00;101174.31;5045630;28;20445;-83
2023/07/17 07:35:16;;;;;;;33.70;30.70;;;;;;;29.94;100.00;101176.38;5042648;28;20053;-83
2023/07/17 07:37:43;;;;;;;32.60;29.90;;;;;;;29.95;100.00;101176.03;5044701;28;20057;-84
2023/07/17 07:40:12;;;;;;;31.92;29.13;;;;;;;30.06;100.00;101179.25;5045420;28;20119;-83
2023/07/17 07:42:39;;;;;;;29.40;26.70;;;;;;;30.41;100.00;101169.00;5040094;28;20053;-83
2023/07/17 07:45:07;;;;;;;32.17;29.55;;;;;;;29.85;100.00;101173.66;5045336;28;20060;-83
2023/07/17 07:47:34;;;;;;;28.42;25.80;;;;;;;29.49;100.00;101171.25;5044751;28;20046;-78
2023/07/17 07:50:25;;;;;;;34.00;31.40;;;;;;;30.37;100.00;101164.50;5042750;28;20473;-83
2023/07/17 07:52:52;;;;;;;31.95;29.42;;;;;;;30.23;100.00;101179.22;5040007;28;20053;-79
2023/07/17 07:55:18;;;;;;;28.23;26.02;;;;;;;30.23;100.00;101161.97;5038529;28;20046;-78
2023/07/17 07:57:45;;;;;;;27.42;25.20;;;;;;;29.77;100.00;101161.59;5041151;28;20057;-78
2023/07/17 08:00:13;;;;;;;35.20;32.60;;;;;;;30.24;100.00;101163.59;5041380;28;20056;-79
2023/07/17 08:02:40;;;;;;;38.15;35.30;;;;;;;30.43;100.00;101163.97;5038932;28;20050;-78
2023/07/17 08:05:08;;;;;;;36.08;33.58;;;;;;;30.42;100.00;101167.06;5044298;28;20052;-83
2023/07/17 08:07:38;;;;;;;41.10;38.30;;;;;;;29.80;100.00;101160.94;5038573;28;20428;-83
2023/07/17 08:10:06;;;;;;;41.88;39.03;;;;;;;30.50;100.00;101164.28;5037518;28;20053;-83
2023/07/17 08:12:33;;;;;;;44.45;41.45;;;;;;;31.29;100.00;101167.34;5042409;28;20048;-83
2023/07/17 08:15:00;;;;;;;42.58;39.72;;;;;;;31.47;100.00;101168.03;5038771;28;20048;-76
2023/07/17 08:17:27;;;;;;;42.00;39.28;;;;;;;31.81;100.00;101166.88;5039337;28;20440;-76
2023/07/17 08:19:54;;;;;;;29.35;26.73;;;;;;;31.79;100.00;101166.41;5039554;28;20045;-76
2023/07/17 08:22:20;;;;;;;31.05;28.55;;;;;;;31.50;100.00;101164.63;5040242;28;20052;-76
2023/07/17 08:24:52;;;;;;;31.40;28.75;;;;;;;31.94;100.00;101165.78;5043187;28;20044;-76
2023/07/17 08:27:19;;;;;;;29.92;27.42;;;;;;;31.25;100.00;101166.38;5039059;28;20049;-76
2023/07/17 08:29:46;;;;;;;30.48;27.88;;;;;;;31.21;100.00;101162.72;5042429;28;20049;-81
2023/07/17 08:32:15;;;;;;;29.83;27.48;;;;;;;31.43;100.00;101156.09;5047409;28;20045;-80
2023/07/17 08:34:45;;;;;;;43.28;40.15;;;;;;;31.69;100.00;101158.59;5044487;28;20041;-76
2023/07/17 08:37:17;;;;;;;43.75;40.85;;;;;;;32.13;100.00;101159.75;5040733;28;20045;-76
2023/07/17 08:39:44;;;;;;;30.77;28.17;;;;;;;32.47;100.00;101155.00;5037721;28;20056;-76
2023/07/17 08:42:14;;;;;;;31.17;28.63;;;;;;;32.70;100.00;101151.78;5041078;28;20580;-76
2023/07/17 08:44:41;;;;;;;38.60;35.95;;;;;;;32.73;100.00;101148.31;5043690;28;20074;-76
2023/07/17 08:47:09;;;;;;;45.55;42.55;;;;;;;32.79;100.00;101150.50;5041055;28;20044;-76
2023/07/17 08:49:38;;;;;;;50.83;47.40;;;;;;;32.83;100.00;101142.34;5041016;28;20076;-76
2023/07/17 08:52:08;;;;;;;46.72;43.67;;;;;;;32.49;100.00;101135.41;5037809;28;20045;-76
2023/07/17 08:54:36;;;;;;;52.28;48.85;;;;;;;32.42;100.00;101126.91;5044847;28;20489;-81
2023/07/17 08:57:05;;;;;;;53.95;50.65;;;;;;;32.19;100.00;101135.59;5048820;28;20041;-83
2023/07/17 08:59:34;;;;;;;51.90;47.85;;;;;;;32.81;100.00;101137.19;5040104;28;20046;-83
2023/07/17 09:02:02;;;;;;;37.33;34.55;;;;;;;32.92;100.00;101129.28;5044750;28;20061;-82
2023/07/17 09:04:31;;;;;;;36.78;34.17;;;;;;;33.08;100.00;101125.81;5041826;28;20479;-80
2023/07/17 09:06:58;;;;;;;41.13;38.00;;;;;;;33.34;100.00;101131.66;5041819;28;20045;-81
2023/07/17 09:09:25;;;;;;;54.13;50.83;;;;;;;33.59;100.00;101115.88;5043251;28;20046;-81
2023/07/17 09:12:07;;;;;;;54.85;51.13;;;;;;;33.94;100.00;101117.94;5040964;28;20409;-80
2023/07/17 09:14:38;;;;;;;49.80;46.70;;;;;;;33.84;100.00;101113.75;5043013;28;20148;-81
2023/07/17 09:17:07;;;;;;;42.25;39.13;;;;;;;33.91;100.00;101107.63;5045017;28;20044;-81
2023/07/17 09:19:35;;;;;;;46.20;42.85;;;;;;;34.06;100.00;101106.84;5042381;28;20475;-81
2023/07/17 09:22:03;;;;;;;34.05;31.35;;;;;;;34.24;100.00;101110.03;5042296;28;20041;-80
2023/07/17 09:24:32;;;;;;;35.20;32.60;;;;;;;33.90;100.00;101109.59;5043857;28;20038;-81
2023/07/17 09:27:07;;;;;;;37.28;34.17;;;;;;;34.02;100.00;101105.94;5039598;28;20448;-81
2023/07/17 09:29:34;;;;;;;34.17;31.48;;;;;;;34.32;100.00;101100.78;5042067;28;20444;-80
2023/07/17 09:32:18;;;;;;;50.67;47.45;;;;;;;34.65;100.00;101099.59;5041514;28;20055;-81
2023/07/17 09:34:45;;;;;;;51.67;48.13;;;;;;;34.50;100.00;101097.66;5044721;28;20060;-81
2023/07/17 09:37:12;;;;;;;52.45;48.85;;;;;;;34.70;100.00;101095.72;5038478;28;20045;-81
2023/07/17 09:39:40;;;;;;;51.22;47.72;;;;;;;34.92;100.00;101095.03;5041088;28;20054;-81
2023/07/17 09:42:23;;;;;;;48.78;45.53;;;;;;;34.98;100.00;101092.75;5036322;28;20341;-81
2023/07/17 09:44:52;;;;;;;48.42;45.08;;;;;;;34.71;100.00;101091.81;5042315;28;20132;-81
2023/07/17 09:47:20;;;;;;;48.83;45.72;;;;;;;34.76;96.83;101095.06;5035970;28;20531;-81
2023/07/17 09:49:55;;;;;;;47.22;44.03;;;;;;;35.20;93.44;101094.81;5040227;28;20053;-81
2023/07/17 09:52:22;;;;;;;44.60;41.88;;;;;;;35.36;98.71;101094.72;5036670;28;20414;-81
2023/07/17 09:54:50;;;;;;;36.38;33.80;;;;;;;34.86;100.00;101089.00;5039129;28;20041;-81
2023/07/17 09:57:26;;;;;;;38.90;35.72;;;;;;;34.90;98.65;101088.28;5036066;28;20496;-76
2023/07/17 09:59:57;;;;;;;39.05;35.90;;;;;;;35.14;100.00;101074.22;5040035;28;20056;-77
2023/07/17 10:02:30;;;;;;;42.42;39.38;;;;;;;34.90;98.17;101077.25;5041722;28;20072;-77
2023/07/17 10:05:01;;;;;;;40.08;37.40;;;;;;;35.67;93.48;101084.66;5034616;28;20072;-77
2023/07/17 10:07:29;;;;;;;31.65;29.35;;;;;;;35.90;89.90;101081.88;5041136;28;20049;-77
2023/07/17 10:10:00;;;;;;;44.17;40.55;;;;;;;35.71;91.01;101078.03;5042683;28;20053;-80
2023/07/17 10:12:27;;;;;;;38.28;35.35;;;;;;;35.91;91.53;101073.22;5036250;28;20322;-76
2023/07/17 10:14:55;;;;;;;34.40;31.60;;;;;;;35.41;97.38;101077.88;5039150;28;20045;-77
2023/07/17 10:17:29;;;;;;;50.42;47.22;;;;;;;35.86;87.38;101079.06;5037019;28;20083;-77
2023/07/17 10:19:59;;;;;;;45.10;41.95;;;;;;;35.82;90.88;101060.81;5036752;28;20049;-77
2023/07/17 10:22:34;;;;;;;47.13;43.80;;;;;;;36.20;87.45;101062.63;5045183;28;20516;-77
2023/07/17 10:25:09;;;;;;;53.15;49.45;;;;;;;36.20;83.53;101065.41;4691218;28;9999783;-77
2023/07/17 10:27:38;;;;;;;56.83;52.88;;;;;;;36.11;89.25;101071.19;5034869;28;20094;-77
2023/07/17 10:30:23;;;;;;;54.30;50.58;;;;;;;35.37;92.88;101057.66;5034957;28;20077;-78
2023/07/17 10:33:05;;;;;;;46.22;42.95;;;;;;;35.17;100.00;101054.16;5036216;28;20102;-78
2023/07/17 10:35:44;;;;;;;48.10;44.67;;;;;;;35.18;100.00;101046.66;5039063;28;20103;-78
2023/07/17 10:38:13;;;;;;;53.20;48.80;;;;;;;34.19;100.00;101050.50;5037371;28;20107;-76
2023/07/17 10:40:39;;;;;;;49.80;46.40;;;;;;;35.98;83.21;101047.69;5035598;28;20445;-77
2023/07/17 10:43:17;;;;;;;51.20;47.75;;;;;;;36.21;86.04;101042.09;5040390;28;20084;-77
2023/07/17 10:45:45;;;;;;;44.80;41.60;;;;;;;36.20;83.72;101038.56;5033162;28;20045;-77
2023/07/17 10:48:14;;;;;;;45.80;42.60;;;;;;;36.55;81.26;101029.16;5039771;28;20047;-77
2023/07/17 10:50:48;;;;;;;41.35;38.35;;;;;;;35.76;92.92;101033.50;5041560;28;20139;-77
2023/07/17 10:53:17;;;;;;;40.40;37.13;;;;;;;35.72;95.20;101037.38;5042746;28;20044;-77
2023/07/17 10:55:46;;;;;;;39.20;36.45;;;;;;;35.51;100.00;101035.03;5041785;28;20057;-78
2023/07/17 10:58:13;;;;;;;30.85;28.05;;;;;;;35.29;94.92;101039.38;5042138;28;20042;-77
2023/07/17 11:00:42;;;;;;;31.45;28.55;;;;;;;35.74;95.66;101046.91;5041307;28;20048;-77
2023/07/17 11:03:09;;;;;;;32.55;29.75;;;;;;;35.73;97.32;101036.22;5039427;28;20103;-77
2023/07/17 11:05:41;;;;;;;34.70;32.00;;;;;;;35.18;100.00;101039.19;5042889;28;20059;-79
2023/07/17 11:08:12;;;;;;;34.03;31.10;;;;;;;34.92;100.00;101034.34;5042922;28;20053;-80